Time;durP1;ratioP1;P1;durP2;ratioP2;P2;SDS_P1;SDS_P2;PMS_P1;PMS_P2;Temp;Humidity;BMP_temperature;BMP_pressure;BME280_temperature;BME280_humidity;BME280_pressure;Samples;Min_cycle;Max_cycle;Signal;HPM_P1;HPM_P2
2022/08/01 00:00:06;;;;;;;1.27;1.17;;;23.70;95.60;;;;;;5013837;28;20453;-86
2022/08/01 00:02:37;;;;;;;3.23;1.37;;;23.70;95.60;;;;;;5017470;28;20493;-86
2022/08/01 00:05:10;;;;;;;2.33;1.40;;;23.60;95.60;;;;;;5001425;28;20562;-86
2022/08/01 00:07:44;;;;;;;3.80;1.50;;;23.60;95.70;;;;;;5023472;28;20498;-87
2022/08/01 00:10:16;;;;;;;1.63;1.53;;;23.60;95.70;;;;;;5013085;28;20521;-85
2022/08/01 00:12:50;;;;;;;1.47;1.27;;;23.70;95.70;;;;;;5017862;28;20557;-87
2022/08/01 00:15:27;;;;;;;1.50;1.40;;;23.60;95.70;;;;;;5004194;28;20483;-85
2022/08/01 00:17:54;;;;;;;2.93;1.90;;;23.50;96.00;;;;;;5015669;28;20562;-86
2022/08/01 00:20:20;;;;;;;1.60;1.50;;;23.50;96.40;;;;;;5012936;28;20485;-87
2022/08/01 00:22:54;;;;;;;1.50;1.40;;;23.40;96.20;;;;;;5021507;28;20542;-87
2022/08/01 00:25:26;;;;;;;1.80;1.60;;;23.40;96.50;;;;;;5000061;28;20455;-87
2022/08/01 00:27:58;;;;;;;1.60;1.50;;;23.40;96.40;;;;;;5013907;28;20446;-87
2022/08/01 00:30:27;;;;;;;2.67;1.53;;;23.40;96.40;;;;;;5009090;28;20457;-86
2022/08/01 00:33:01;;;;;;;1.80;1.67;;;23.40;96.50;;;;;;5009068;28;20471;-85
2022/08/01 00:35:28;;;;;;;2.27;1.63;;;23.40;96.40;;;;;;5004188;28;20479;-86
2022/08/01 00:38:04;;;;;;;2.13;1.50;;;23.40;96.50;;;;;;5015526;28;20487;-86
2022/08/01 00:40:36;;;;;;;1.20;1.10;;;23.40;96.50;;;;;;5006908;28;20431;-85
2022/08/01 00:43:03;;;;;;;1.70;1.60;;;23.40;96.50;;;;;;5023355;28;20464;-87
2022/08/01 00:45:30;;;;;;;3.27;1.70;;;23.50;96.40;;;;;;5026574;28;20518;-86
2022/08/01 00:47:58;;;;;;;2.60;1.60;;;23.50;96.30;;;;;;4986122;28;20462;-87
2022/08/01 00:50:57;;;;;;;1.90;1.47;;;23.50;96.20;;;;;;5001365;28;20459;-87
2022/08/01 00:53:25;;;;;;;2.00;1.80;;;23.40;96.40;;;;;;5015480;28;20456;-87
2022/08/01 00:55:56;;;;;;;1.47;1.37;;;23.40;96.70;;;;;;5016567;28;20455;-89
2022/08/01 00:58:37;;;;;;;1.97;1.60;;;23.30;96.80;;;;;;5018716;28;20459;-90
2022/08/01 01:01:03;;;;;;;3.70;1.57;;;23.30;97.30;;;;;;5026186;28;20482;-85
2022/08/01 01:03:31;;;;;;;1.73;1.63;;;23.10;97.80;;;;;;5008711;28;20451;-87
2022/08/01 01:06:26;;;;;;;1.90;1.77;;;23.00;98.50;;;;;;5000231;28;20856;-87
2022/08/01 01:09:18;;;;;;;1.63;1.53;;;22.90;99.40;;;;;;5001129;28;20462;-86
2022/08/01 01:12:00;;;;;;;2.23;2.03;;;22.80;99.80;;;;;;5011327;28;20482;-86
2022/08/01 01:14:37;;;;;;;1.33;1.23;;;22.80;99.80;;;;;;5002419;28;20469;-87
2022/08/01 01:17:07;;;;;;;1.93;1.70;;;22.90;99.90;;;;;;5002741;28;20473;-85
2022/08/01 01:19:39;;;;;;;3.67;1.90;;;22.90;99.70;;;;;;5002463;28;20459;-85
2022/08/01 01:22:06;;;;;;;2.70;2.13;;;22.90;99.80;;;;;;5012051;28;20470;-87
2022/08/01 01:25:15;;;;;;;1.70;1.60;;;22.80;99.90;;;;;;5011809;28;20455;-87
2022/08/01 01:28:19;;;;;;;2.30;2.00;;;22.80;99.90;;;;;;5016429;28;20454;-85
2022/08/01 01:30:50;;;;;;;2.30;1.77;;;22.80;99.90;;;;;;5025869;28;20469;-87
2022/08/01 01:33:20;;;;;;;2.47;1.93;;;22.80;99.90;;;;;;5022286;28;20460;-89
2022/08/01 01:35:53;;;;;;;2.40;1.70;;;22.70;99.90;;;;;;5024169;28;20595;-89
2022/08/01 01:38:26;;;;;;;2.37;2.20;;;22.70;99.90;;;;;;5036552;28;20505;-86
2022/08/01 01:40:57;;;;;;;2.33;2.03;;;22.60;99.90;;;;;;5016802;28;20490;-89
2022/08/01 01:43:25;;;;;;;2.27;2.03;;;22.60;99.90;;;;;;5016166;28;20591;-87
2022/08/01 01:45:55;;;;;;;2.00;1.90;;;22.70;99.90;;;;;;5024039;28;20456;-87
2022/08/01 01:48:24;;;;;;;2.30;2.10;;;22.70;99.90;;;;;;5024529;28;20461;-89
2022/08/01 01:50:53;;;;;;;2.17;1.90;;;22.80;99.90;;;;;;5014842;28;20600;-86
2022/08/01 01:53:29;;;;;;;2.30;2.10;;;22.90;99.90;;;;;;5017002;28;20447;-89
2022/08/01 01:56:00;;;;;;;4.00;2.50;;;22.80;99.90;;;;;;5031140;28;20546;-88
2022/08/01 01:58:39;;;;;;;2.50;2.10;;;22.70;99.90;;;;;;5012295;28;20467;-88
2022/08/01 02:01:07;;;;;;;2.57;2.37;;;22.70;99.90;;;;;;5027350;28;20467;-89
2022/08/01 02:04:04;;;;;;;2.83;2.20;;;22.60;99.90;;;;;;4997706;28;20449;-89
2022/08/01 02:06:34;;;;;;;3.20;2.07;;;22.60;99.90;;;;;;5008559;28;20458;-89
2022/08/01 02:09:11;;;;;;;2.50;2.30;;;22.50;99.90;;;;;;5020892;28;20473;-87
2022/08/01 02:11:39;;;;;;;3.67;1.77;;;22.60;99.90;;;;;;5028351;28;20469;-88
2022/08/01 02:14:27;;;;;;;2.47;2.20;;;22.40;99.90;;;;;;5020481;28;20459;-88
2022/08/01 02:17:06;;;;;;;3.57;2.13;;;22.50;99.90;;;;;;5005361;28;20547;-88
2022/08/01 02:19:42;;;;;;;2.67;2.40;;;22.50;99.90;;;;;;5016124;28;20450;-87
2022/08/01 02:22:20;;;;;;;4.30;2.20;;;22.50;99.90;;;;;;5019361;28;20987;-86
2022/08/01 02:24:55;;;;;;;1.80;1.60;;;22.50;99.90;;;;;;5018112;28;20454;-87
2022/08/01 02:27:28;;;;;;;3.40;2.13;;;22.50;99.90;;;;;;4982255;28;20453;-87
2022/08/01 02:30:08;;;;;;;1.67;1.57;;;22.50;99.90;;;;;;5011406;28;20476;-87
2022/08/01 02:32:41;;;;;;;2.40;2.10;;;22.50;99.90;;;;;;5003268;28;20470;-87
2022/08/01 02:35:17;;;;;;;2.67;2.47;;;22.60;99.90;;;;;;5011006;28;20454;-88
2022/08/01 02:37:45;;;;;;;4.53;2.07;;;22.60;99.90;;;;;;5019175;28;20876;-87
2022/08/01 02:40:17;;;;;;;2.47;2.27;;;22.50;99.90;;;;;;5003430;28;20960;-87
2022/08/01 02:42:49;;;;;;;2.73;2.53;;;22.50;99.90;;;;;;5016388;28;20482;-85
2022/08/01 02:45:26;;;;;;;3.00;2.27;;;22.50;99.90;;;;;;5008232;28;20519;-87
2022/08/01 02:48:07;;;;;;;4.90;2.90;;;22.50;99.90;;;;;;5023026;28;20530;-88
2022/08/01 02:50:47;;;;;;;3.53;3.00;;;22.40;99.90;;;;;;5017753;28;20458;-86
2022/08/01 02:53:28;;;;;;;2.90;2.63;;;22.50;99.90;;;;;;5013649;28;20494;-86
2022/08/01 02:56:10;;;;;;;3.93;2.80;;;22.40;99.90;;;;;;5018717;28;20885;-87
2022/08/01 02:58:38;;;;;;;4.70;2.87;;;22.40;99.90;;;;;;5015065;28;20956;-86
2022/08/01 03:01:09;;;;;;;3.37;3.00;;;22.40;99.90;;;;;;5018509;28;20486;-87
2022/08/01 03:03:37;;;;;;;3.00;2.77;;;22.30;99.90;;;;;;5005368;28;20450;-87
2022/08/01 03:06:14;;;;;;;4.27;2.80;;;22.30;99.90;;;;;;5015111;28;20459;-86
2022/08/01 03:08:41;;;;;;;3.57;3.27;;;22.30;99.90;;;;;;5002738;28;20481;-88
2022/08/01 03:11:09;;;;;;;2.80;2.60;;;22.20;99.90;;;;;;5015172;28;20482;-86
2022/08/01 03:13:48;;;;;;;2.50;2.17;;;22.20;99.90;;;;;;5004240;28;20844;-87
2022/08/01 03:16:21;;;;;;;4.10;3.13;;;22.20;99.90;;;;;;5005329;28;20481;-86
2022/08/01 03:18:56;;;;;;;2.80;2.60;;;22.20;99.90;;;;;;5012686;28;20963;-86
2022/08/01 03:21:37;;;;;;;3.63;2.57;;;22.20;99.90;;;;;;5003694;28;20477;-86
2022/08/01 03:24:06;;;;;;;5.20;2.70;;;22.20;99.90;;;;;;5006261;28;20466;-87
2022/08/01 03:26:36;;;;;;;5.60;2.87;;;22.30;99.90;;;;;;5015513;28;20470;-86
2022/08/01 03:29:33;;;;;;;3.63;2.53;;;22.30;99.90;;;;;;5013957;28;20493;-86
2022/08/01 03:32:01;;;;;;;3.33;2.93;;;22.30;99.90;;;;;;4994864;28;20471;-86
2022/08/01 03:34:30;;;;;;;8.07;3.70;;;22.20;99.90;;;;;;5006158;28;21051;-87
2022/08/01 03:37:21;;;;;;;3.87;2.50;;;22.30;99.90;;;;;;4989237;28;20479;-87
2022/08/01 03:39:57;;;;;;;4.60;3.20;;;22.30;99.90;;;;;;5005614;28;20458;-86
2022/08/01 03:42:31;;;;;;;3.30;3.00;;;22.30;99.90;;;;;;5025659;22;20501;-85
2022/08/01 03:45:02;;;;;;;4.37;2.90;;;22.20;99.90;;;;;;5013716;28;20950;-87
2022/08/01 03:47:33;;;;;;;3.10;2.87;;;22.20;99.90;;;;;;5021861;28;20477;-87
2022/08/01 03:50:03;;;;;;;5.97;3.40;;;22.10;99.90;;;;;;5016710;28;20462;-87
2022/08/01 03:52:36;;;;;;;4.37;3.60;;;22.10;99.90;;;;;;5014170;28;20481;-88
2022/08/01 03:55:06;;;;;;;3.53;3.20;;;22.10;99.90;;;;;;5020838;28;20469;-87
2022/08/01 03:57:48;;;;;;;4.47;3.97;;;22.10;99.90;;;;;;4984565;28;20498;-88
2022/08/01 04:00:18;;;;;;;4.20;3.10;;;22.20;99.90;;;;;;5029852;28;20467;-87
2022/08/01 04:02:49;;;;;;;4.30;3.73;;;22.20;99.90;;;;;;5015293;28;20903;-88
2022/08/01 04:05:19;;;;;;;4.03;3.63;;;22.10;99.90;;;;;;5032708;28;20498;-87
2022/08/01 04:07:50;;;;;;;4.90;3.90;;;22.20;99.90;;;;;;5028032;28;20486;-87
2022/08/01 04:10:17;;;;;;;5.17;3.90;;;22.20;99.90;;;;;;5014194;28;20462;-88
2022/08/01 04:12:45;;;;;;;4.90;3.93;;;22.20;99.90;;;;;;5022743;28;20529;-88
2022/08/01 04:15:15;;;;;;;6.93;4.20;;;22.30;99.90;;;;;;5027547;28;20539;-86
2022/08/01 04:17:43;;;;;;;5.63;4.00;;;22.20;99.90;;;;;;5012440;28;20478;-88
2022/08/01 04:20:11;;;;;;;5.37;4.00;;;22.20;99.90;;;;;;5017930;28;20459;-87
2022/08/01 04:22:38;;;;;;;4.90;4.50;;;22.30;99.90;;;;;;5014213;28;20485;-88
2022/08/01 04:25:11;;;;;;;4.97;4.47;;;22.30;99.90;;;;;;5024080;28;20454;-86
2022/08/01 04:27:46;;;;;;;6.03;4.00;;;22.30;99.90;;;;;;5034805;28;20453;-87
2022/08/01 04:30:15;;;;;;;5.77;4.70;;;22.20;99.90;;;;;;5019889;28;20454;-86
2022/08/01 04:32:58;;;;;;;7.80;4.57;;;22.20;99.90;;;;;;5107774;22;21097;-86
2022/08/01 04:35:27;;;;;;;4.87;4.47;;;22.20;99.90;;;;;;5034942;28;20450;-87
2022/08/01 04:38:19;;;;;;;8.23;3.80;;;22.20;99.90;;;;;;5025704;28;20825;-88
2022/08/01 04:40:46;;;;;;;5.63;5.00;;;22.20;99.90;;;;;;5026609;28;20446;-87
2022/08/01 04:43:13;;;;;;;7.97;5.60;;;22.10;99.90;;;;;;5018226;28;20458;-88
2022/08/01 04:45:43;;;;;;;5.27;4.47;;;22.10;99.90;;;;;;5015814;28;20525;-88
2022/08/01 04:48:16;;;;;;;4.60;4.20;;;22.10;99.90;;;;;;5030136;28;20927;-87
2022/08/01 04:50:43;;;;;;;4.77;4.10;;;22.10;99.90;;;;;;5023535;28;20977;-88
2022/08/01 04:53:16;;;;;;;5.03;4.53;;;22.10;99.90;;;;;;5023400;28;20501;-86
2022/08/01 04:55:45;;;;;;;6.60;5.00;;;22.00;99.90;;;;;;5006805;28;20454;-86
2022/08/01 04:58:13;;;;;;;6.77;5.23;;;22.10;99.90;;;;;;5004155;28;20482;-85
2022/08/01 05:00:46;;;;;;;6.40;5.57;;;22.00;99.90;;;;;;5002646;28;20458;-86
2022/08/01 05:03:13;;;;;;;4.80;4.40;;;22.00;99.90;;;;;;5005383;28;20441;-86
2022/08/01 05:05:40;;;;;;;7.83;5.30;;;22.00;99.90;;;;;;5012948;28;20454;-85
2022/08/01 05:08:09;;;;;;;7.23;5.27;;;22.10;99.90;;;;;;5031769;28;20530;-86
2022/08/01 05:10:48;;;;;;;6.33;5.40;;;22.10;99.90;;;;;;5021277;28;20451;-87
2022/08/01 05:13:15;;;;;;;5.10;4.60;;;22.00;99.90;;;;;;5031342;28;20446;-87
2022/08/01 05:15:42;;;;;;;8.90;5.40;;;22.10;99.90;;;;;;5012840;28;20450;-87
2022/08/01 05:18:18;;;;;;;6.17;5.57;;;22.00;99.90;;;;;;5036854;28;20465;-88
2022/08/01 05:20:51;;;;;;;6.40;5.33;;;22.10;99.90;;;;;;5043026;28;20452;-87
2022/08/01 05:23:21;;;;;;;7.33;6.43;;;22.10;99.90;;;;;;5052110;28;20453;-88
2022/08/01 05:25:49;;;;;;;6.27;5.50;;;22.10;99.90;;;;;;5042964;28;20446;-86
2022/08/01 05:28:23;;;;;;;7.03;6.17;;;22.10;99.90;;;;;;5027097;28;20458;-86
2022/08/01 05:30:54;;;;;;;7.00;6.40;;;22.10;99.90;;;;;;5035559;28;20438;-87
2022/08/01 05:33:21;;;;;;;6.43;5.83;;;22.10;99.90;;;;;;5051361;28;20448;-89
2022/08/01 05:35:48;;;;;;;7.03;6.40;;;22.20;99.90;;;;;;5044927;28;21537;-88
2022/08/01 05:38:15;;;;;;;6.60;6.00;;;22.20;99.90;;;;;;5015404;28;20454;-85
2022/08/01 05:40:42;;;;;;;6.10;5.50;;;22.20;99.90;;;;;;5029679;28;20462;-84
2022/08/01 05:43:09;;;;;;;7.70;6.20;;;22.20;99.90;;;;;;5031624;28;20469;-85
2022/08/01 05:45:36;;;;;;;6.50;5.80;;;22.20;99.90;;;;;;5024433;28;20466;-85
2022/08/01 05:48:03;;;;;;;7.87;7.00;;;22.20;99.90;;;;;;5016646;28;20467;-84
2022/08/01 05:50:30;;;;;;;8.53;7.73;;;22.30;99.90;;;;;;5018628;28;20482;-86
2022/08/01 05:52:57;;;;;;;8.17;7.37;;;22.20;99.90;;;;;;5033059;28;20473;-84
2022/08/01 05:55:24;;;;;;;7.43;6.73;;;22.20;99.90;;;;;;5025335;28;20477;-85
2022/08/01 05:57:50;;;;;;;10.43;7.97;;;22.20;99.90;;;;;;5006834;28;20490;-86
2022/08/01 06:00:17;;;;;;;11.20;7.70;;;22.30;99.90;;;;;;5022299;28;20474;-85
2022/08/01 06:02:51;;;;;;;9.13;8.33;;;22.20;99.90;;;;;;5024118;28;20474;-86
2022/08/01 06:05:18;;;;;;;9.30;8.10;;;22.20;99.90;;;;;;5014602;28;20450;-86
2022/08/01 06:07:45;;;;;;;10.63;8.77;;;22.20;99.90;;;;;;5017242;28;20447;-87
2022/08/01 06:10:12;;;;;;;9.37;8.27;;;22.20;99.90;;;;;;5014206;28;20460;-85
2022/08/01 06:12:38;;;;;;;11.20;8.50;;;22.20;99.90;;;;;;5005032;28;20489;-88
2022/08/01 06:15:06;;;;;;;8.67;7.97;;;22.20;99.90;;;;;;5030660;28;20540;-86
2022/08/01 06:17:36;;;;;;;11.47;10.47;;;22.30;99.90;;;;;;5030630;28;21098;-87
2022/08/01 06:20:10;;;;;;;12.97;11.70;;;22.40;99.90;;;;;;5023225;28;20473;-87
2022/08/01 06:22:37;;;;;;;12.40;10.20;;;22.50;99.90;;;;;;5029555;28;20474;-86
2022/08/01 06:25:05;;;;;;;9.67;8.73;;;22.50;99.90;;;;;;5042501;28;20441;-88
2022/08/01 06:27:36;;;;;;;9.90;8.60;;;22.50;99.90;;;;;;5022297;28;20462;-86
2022/08/01 06:30:07;;;;;;;10.70;8.20;;;22.60;99.90;;;;;;5033727;28;20530;-88
2022/08/01 06:32:34;;;;;;;11.37;8.30;;;22.60;99.90;;;;;;5007454;28;20488;-88
2022/08/01 06:35:01;;;;;;;10.63;8.50;;;22.60;99.90;;;;;;5030207;28;20441;-86
2022/08/01 06:37:31;;;;;;;9.57;8.63;;;22.80;99.90;;;;;;5036959;28;20466;-88
2022/08/01 06:40:06;;;;;;;10.33;8.60;;;22.80;99.90;;;;;;5034491;28;20751;-90
2022/08/01 06:42:35;;;;;;;10.20;9.20;;;22.90;99.90;;;;;;5020599;28;20566;-89
2022/08/01 06:45:03;;;;;;;10.13;9.13;;;23.10;99.90;;;;;;5041742;28;20460;-89
2022/08/01 06:47:48;;;;;;;8.53;7.73;;;23.10;99.90;;;;;;5041318;28;20446;-89
2022/08/01 06:50:19;;;;;;;10.10;8.60;;;23.10;99.90;;;;;;5031247;28;20446;-88
2022/08/01 06:52:54;;;;;;;10.57;9.47;;;23.20;99.90;;;;;;5042128;28;20462;-88
2022/08/01 06:55:21;;;;;;;8.83;7.93;;;23.40;99.90;;;;;;5030044;28;20466;-86
2022/08/01 06:57:51;;;;;;;9.40;7.80;;;23.50;99.90;;;;;;5020351;28;20556;-87
2022/08/01 07:00:22;;;;;;;8.10;7.47;;;23.40;99.90;;;;;;5023335;28;20473;-87
2022/08/01 07:02:59;;;;;;;9.43;8.33;;;23.50;99.90;;;;;;5018788;28;20585;-85
2022/08/01 07:05:35;;;;;;;12.97;9.03;;;23.30;99.90;;;;;;5020993;28;20434;-87
2022/08/01 07:08:01;;;;;;;12.10;8.53;;;23.10;99.90;;;;;;5028232;28;20455;-87
2022/08/01 07:10:31;;;;;;;10.30;9.30;;;23.00;99.90;;;;;;5025135;28;20922;-88
2022/08/01 07:12:59;;;;;;;9.57;8.07;;;22.90;99.90;;;;;;5027616;28;20900;-88
2022/08/01 07:15:26;;;;;;;8.83;8.03;;;22.90;99.90;;;;;;5020055;28;20450;-87
2022/08/01 07:17:53;;;;;;;9.27;8.37;;;23.00;99.90;;;;;;5022900;28;20497;-86
2022/08/01 07:20:20;;;;;;;7.73;7.20;;;23.00;99.90;;;;;;5026875;28;20454;-88
2022/08/01 07:22:46;;;;;;;10.37;9.37;;;23.30;99.90;;;;;;5023591;28;20462;-88
2022/08/01 07:25:14;;;;;;;9.80;8.90;;;23.70;99.90;;;;;;5038162;28;20435;-88
2022/08/01 07:27:49;;;;;;;9.43;8.53;;;23.70;99.40;;;;;;5016636;28;20845;-86
2022/08/01 07:30:16;;;;;;;11.50;10.50;;;23.50;99.90;;;;;;5021099;28;20454;-87
2022/08/01 07:32:43;;;;;;;10.00;9.10;;;23.20;99.90;;;;;;5030239;28;20481;-87
2022/08/01 07:35:10;;;;;;;10.63;9.67;;;23.20;99.90;;;;;;5027497;28;20469;-86
2022/08/01 07:37:39;;;;;;;10.93;9.70;;;23.20;99.90;;;;;;4997265;28;20478;-87
2022/08/01 07:40:08;;;;;;;11.50;9.60;;;23.10;99.90;;;;;;5023163;28;20481;-88
2022/08/01 07:42:35;;;;;;;9.73;8.73;;;23.10;99.90;;;;;;5027677;28;20462;-88
2022/08/01 07:45:04;;;;;;;8.90;8.20;;;23.10;99.90;;;;;;5036158;28;20442;-86
2022/08/01 07:47:33;;;;;;;9.50;8.57;;;23.20;99.90;;;;;;5025995;28;20459;-88
2022/08/01 07:50:06;;;;;;;9.13;8.37;;;23.20;99.90;;;;;;5027424;28;20442;-88
2022/08/01 07:52:33;;;;;;;9.00;8.07;;;23.20;99.90;;;;;;5032653;28;20462;-88
2022/08/01 07:55:10;;;;;;;11.23;9.20;;;23.10;99.90;;;;;;5029978;28;20526;-87
2022/08/01 07:57:38;;;;;;;9.80;8.90;;;23.10;99.90;;;;;;5023314;28;20480;-87
2022/08/01 08:00:07;;;;;;;11.70;9.77;;;23.10;99.90;;;;;;5033014;28;20433;-86
2022/08/01 08:02:33;;;;;;;10.27;9.27;;;23.10;99.90;;;;;;5024770;28;20474;-87
2022/08/01 08:05:01;;;;;;;11.10;10.20;;;23.10;99.90;;;;;;5025713;28;20454;-87
2022/08/01 08:07:36;;;;;;;9.60;8.73;;;23.30;99.90;;;;;;5008482;28;20749;-87
2022/08/01 08:10:05;;;;;;;9.23;8.43;;;23.80;98.90;;;;;;5024913;28;20500;-88
2022/08/01 08:12:32;;;;;;;9.30;8.40;;;24.10;97.90;;;;;;5032544;28;20478;-88
2022/08/01 08:15:00;;;;;;;10.33;8.10;;;24.30;97.20;;;;;;5030220;28;20481;-86
2022/08/01 08:17:27;;;;;;;9.07;8.20;;;24.40;96.90;;;;;;5045296;28;20551;-86
2022/08/01 08:20:14;;;;;;;8.87;7.63;;;24.90;95.90;;;;;;5036630;28;20430;-87
2022/08/01 08:26:12;;;;;;;8.03;7.33;;;27.90;91.50;;;;;;5025300;28;20553;-88
2022/08/01 08:28:39;;;;;;;8.07;6.90;;;28.60;88.30;;;;;;5044152;28;20443;-88
2022/08/01 08:31:07;;;;;;;7.97;7.27;;;28.60;84.80;;;;;;5046834;28;20477;-89
2022/08/01 08:33:51;;;;;;;8.40;6.93;;;28.10;86.50;;;;;;5020215;28;20438;-89
2022/08/01 08:36:18;;;;;;;7.67;6.87;;;27.70;87.40;;;;;;5031379;28;20529;-87
2022/08/01 08:38:44;;;;;;;10.60;8.30;;;27.30;88.50;;;;;;5033941;28;20486;-87
2022/08/01 08:41:12;;;;;;;10.97;7.80;;;27.10;88.60;;;;;;5025516;28;20519;-87
2022/08/01 08:43:50;;;;;;;8.23;7.53;;;26.50;90.20;;;;;;5036803;28;20513;-88
2022/08/01 08:46:18;;;;;;;7.77;7.17;;;25.90;91.50;;;;;;5036344;28;20437;-88
2022/08/01 08:48:46;;;;;;;9.00;7.80;;;25.50;92.70;;;;;;5027375;28;20541;-87
2022/08/01 08:51:25;;;;;;;6.80;6.30;;;25.00;93.90;;;;;;5033958;28;20484;-87
2022/08/01 08:54:02;;;;;;;7.40;6.80;;;24.90;94.60;;;;;;5012042;28;20455;-89
2022/08/01 08:56:33;;;;;;;7.43;6.83;;;25.30;94.20;;;;;;5036215;28;20513;-87
2022/08/01 08:59:08;;;;;;;7.13;6.60;;;25.10;94.00;;;;;;5044321;28;20468;-86
2022/08/01 09:01:35;;;;;;;7.00;6.50;;;24.80;94.10;;;;;;5055126;28;20455;-88
2022/08/01 09:04:05;;;;;;;8.10;7.40;;;24.60;94.50;;;;;;5023250;28;20470;-86
2022/08/01 09:06:36;;;;;;;7.03;6.33;;;24.50;94.80;;;;;;5021515;28;20477;-86
2022/08/01 09:09:04;;;;;;;6.90;6.30;;;24.40;95.10;;;;;;5018377;28;20500;-88
2022/08/01 09:11:34;;;;;;;6.73;6.23;;;24.70;95.10;;;;;;5047773;28;20796;-87
2022/08/01 09:14:30;;;;;;;8.00;7.20;;;25.10;94.20;;;;;;5039300;28;20465;-85
2022/08/01 09:17:08;;;;;;;6.07;5.57;;;24.80;94.20;;;;;;5034420;28;20545;-86
2022/08/01 09:19:43;;;;;;;7.10;6.60;;;24.80;94.10;;;;;;5038934;28;20446;-89
2022/08/01 09:22:13;;;;;;;5.93;5.53;;;24.80;93.90;;;;;;5037570;28;20535;-86
2022/08/01 09:24:41;;;;;;;7.33;6.83;;;24.70;93.80;;;;;;5035751;28;20807;-87
2022/08/01 09:27:17;;;;;;;6.40;5.90;;;24.60;94.10;;;;;;5029498;28;20445;-87
2022/08/01 09:29:45;;;;;;;5.70;5.23;;;24.50;94.40;;;;;;5021708;28;20517;-88
2022/08/01 09:32:15;;;;;;;6.27;5.60;;;24.50;94.50;;;;;;5032786;28;20592;-88
2022/08/01 09:34:42;;;;;;;6.67;6.17;;;24.60;94.30;;;;;;5027767;28;20539;-87
2022/08/01 09:37:09;;;;;;;6.90;6.23;;;24.70;94.00;;;;;;5028215;28;20564;-88
2022/08/01 09:39:39;;;;;;;7.63;6.90;;;24.60;94.00;;;;;;5029178;28;20442;-87
2022/08/01 09:42:38;;;;;;;6.77;6.00;;;24.60;94.20;;;;;;5037382;28;20830;-87
2022/08/01 09:45:06;;;;;;;7.50;6.90;;;24.90;94.20;;;;;;4991966;28;20522;-88
2022/08/01 09:47:39;;;;;;;10.20;7.30;;;25.20;94.00;;;;;;5029183;28;20458;-87
2022/08/01 09:50:07;;;;;;;7.00;6.37;;;25.70;93.20;;;;;;5020914;28;20453;-88
2022/08/01 09:52:37;;;;;;;6.03;5.53;;;25.80;92.50;;;;;;5033977;28;20591;-87
2022/08/01 09:55:08;;;;;;;7.63;6.93;;;25.40;92.60;;;;;;5031788;28;20471;-88
2022/08/01 09:57:35;;;;;;;6.97;6.30;;;25.20;93.00;;;;;;5032037;28;20478;-86
2022/08/01 10:00:04;;;;;;;6.13;5.63;;;25.20;93.10;;;;;;5032474;28;20521;-89
2022/08/01 10:02:39;;;;;;;6.50;6.00;;;25.50;92.60;;;;;;5040796;28;20495;-87
2022/08/01 10:05:09;;;;;;;6.13;5.63;;;26.00;92.00;;;;;;5043525;28;20497;-87
2022/08/01 10:07:54;;;;;;;5.40;5.00;;;26.40;91.00;;;;;;5036921;28;20526;-90
2022/08/01 10:10:21;;;;;;;5.93;5.33;;;26.40;88.60;;;;;;5037342;28;20476;-90
2022/08/01 10:12:49;;;;;;;5.53;5.03;;;26.50;90.00;;;;;;5034133;28;20474;-87
2022/08/01 10:15:17;;;;;;;5.43;5.00;;;27.40;88.90;;;;;;5029322;28;20449;-88
2022/08/01 10:17:56;;;;;;;6.13;4.73;;;28.30;84.70;;;;;;5030273;28;20475;-88
2022/08/01 10:20:31;;;;;;;6.50;5.90;;;28.70;82.20;;;;;;5032295;28;20458;-86
2022/08/01 10:23:01;;;;;;;7.97;5.20;;;29.20;79.80;;;;;;5031567;28;20470;-87
2022/08/01 10:25:37;;;;;;;5.40;4.67;;;29.70;77.30;;;;;;5030346;28;20446;-87
2022/08/01 10:28:17;;;;;;;5.60;5.07;;;29.10;76.60;;;;;;5025480;28;20465;-88
2022/08/01 10:30:46;;;;;;;5.47;5.07;;;29.20;77.70;;;;;;5025294;28;20472;-87
2022/08/01 10:33:15;;;;;;;5.73;5.23;;;29.10;76.60;;;;;;5035469;28;20462;-87
2022/08/01 10:35:45;;;;;;;6.23;5.47;;;28.80;77.30;;;;;;5026391;28;20548;-86
2022/08/01 10:38:14;;;;;;;4.97;4.60;;;28.30;78.30;;;;;;5031447;28;20829;-87
2022/08/01 10:40:42;;;;;;;5.57;4.90;;;27.50;80.70;;;;;;5009928;28;20468;-88
2022/08/01 10:43:10;;;;;;;4.90;4.50;;;27.20;82.80;;;;;;5024077;28;20453;-87
2022/08/01 10:45:38;;;;;;;7.20;4.70;;;27.00;84.10;;;;;;5025135;28;20452;-89
2022/08/01 10:48:24;;;;;;;5.40;5.00;;;26.70;84.40;;;;;;5022320;28;20888;-87
2022/08/01 10:50:56;;;;;;;5.97;5.47;;;26.60;85.50;;;;;;5014291;28;20477;-87
2022/08/01 10:53:25;;;;;;;5.97;5.57;;;26.70;85.10;;;;;;5031649;28;20971;-86
2022/08/01 10:55:56;;;;;;;5.30;4.90;;;26.60;85.10;;;;;;5030301;28;20460;-87
2022/08/01 10:58:29;;;;;;;5.77;5.27;;;26.60;85.50;;;;;;5025651;28;20478;-87
2022/08/01 11:01:14;;;;;;;4.43;4.03;;;26.80;84.90;;;;;;5038699;28;20477;-86
2022/08/01 11:03:43;;;;;;;7.17;4.03;;;27.40;83.50;;;;;;5036387;28;20467;-88
2022/08/01 11:06:43;;;;;;;4.23;3.83;;;27.90;80.00;;;;;;5029923;28;20464;-87
2022/08/01 11:09:12;;;;;;;4.20;3.80;;;28.20;78.70;;;;;;5024876;28;20457;-87
2022/08/01 11:12:03;;;;;;;3.77;3.57;;;28.50;76.60;;;;;;5027125;28;20509;-89
2022/08/01 11:14:33;;;;;;;4.40;4.10;;;28.40;75.70;;;;;;5016497;28;20459;-87
2022/08/01 11:17:44;;;;;;;4.77;4.43;;;28.70;75.80;;;;;;5006093;28;20434;-86
2022/08/01 11:20:12;;;;;;;4.20;3.90;;;28.90;74.70;;;;;;5030884;28;20521;-89
2022/08/01 11:23:00;;;;;;;4.47;4.07;;;29.50;73.80;;;;;;5018146;28;20458;-88
2022/08/01 11:25:37;;;;;;;4.60;4.30;;;30.40;69.70;;;;;;5036731;28;20549;-88
2022/08/01 11:28:26;;;;;;;4.43;4.13;;;30.20;68.30;;;;;;5015233;28;20490;-88
2022/08/01 11:31:01;;;;;;;4.40;4.00;;;29.00;71.40;;;;;;5022417;28;20904;-87
2022/08/01 11:33:47;;;;;;;4.53;4.13;;;28.60;73.90;;;;;;5021284;28;20450;-86
2022/08/01 11:36:15;;;;;;;4.33;4.03;;;28.60;74.00;;;;;;5022217;28;20450;-85
2022/08/01 11:38:44;;;;;;;3.83;3.53;;;28.60;74.10;;;;;;5026052;28;20480;-86
2022/08/01 11:41:12;;;;;;;4.37;4.00;;;29.10;72.30;;;;;;5031503;28;20472;-87
2022/08/01 11:44:01;;;;;;;3.80;3.40;;;29.00;72.20;;;;;;5010583;28;20516;-87
2022/08/01 11:46:48;;;;;;;4.00;3.80;;;29.50;71.80;;;;;;5019831;28;20543;-85
2022/08/01 11:49:34;;;;;;;3.97;3.57;;;29.80;69.60;;;;;;5025951;28;20458;-87
2022/08/01 11:52:11;;;;;;;3.63;3.40;;;29.70;69.00;;;;;;5020423;28;20478;-85
2022/08/01 11:54:43;;;;;;;6.53;4.20;;;29.20;71.20;;;;;;5011860;28;20557;-86
2022/08/01 11:57:11;;;;;;;3.70;3.50;;;28.80;71.00;;;;;;5022771;28;20446;-85
2022/08/01 11:59:47;;;;;;;4.23;3.93;;;28.50;70.50;;;;;;5031415;28;20480;-86
2022/08/01 12:02:33;;;;;;;3.93;3.47;;;28.00;69.50;;;;;;5035679;28;20478;-87
2022/08/01 12:05:11;;;;;;;3.10;2.90;;;28.10;69.00;;;;;;5034766;28;20529;-88
2022/08/01 12:07:43;;;;;;;5.07;3.37;;;28.40;70.00;;;;;;5041902;28;20496;-87
2022/08/01 12:10:15;;;;;;;4.70;3.10;;;28.60;68.20;;;;;;5034384;28;20517;-87
2022/08/01 12:12:50;;;;;;;3.67;2.60;;;28.70;67.40;;;;;;5042867;28;20477;-87
2022/08/01 12:15:19;;;;;;;3.77;3.40;;;29.70;64.40;;;;;;5046702;28;20440;-89
2022/08/01 12:18:08;;;;;;;3.20;2.80;;;29.50;64.40;;;;;;5031585;28;20454;-88
2022/08/01 12:20:45;;;;;;;2.90;2.70;;;29.20;64.10;;;;;;5031703;28;20457;-88
2022/08/01 12:23:27;;;;;;;3.67;3.30;;;29.00;65.40;;;;;;5031322;28;20449;-89
2022/08/01 12:25:54;;;;;;;3.97;3.60;;;28.80;67.00;;;;;;5044267;28;20458;-88
2022/08/01 12:28:21;;;;;;;3.93;3.30;;;28.80;68.40;;;;;;5025213;28;20525;-87
2022/08/01 12:30:49;;;;;;;3.70;3.40;;;28.50;69.20;;;;;;5023153;28;20462;-90
2022/08/01 12:33:20;;;;;;;3.30;3.10;;;28.40;70.30;;;;;;5029608;28;20485;-86
2022/08/01 12:35:47;;;;;;;3.27;3.07;;;28.30;69.70;;;;;;5045638;28;20442;-88
2022/08/01 12:38:22;;;;;;;4.50;3.53;;;28.10;70.50;;;;;;5013258;28;20477;-88
2022/08/01 12:40:51;;;;;;;3.77;3.43;;;28.10;71.00;;;;;;5040046;28;20460;-87
2022/08/01 12:43:26;;;;;;;3.33;2.90;;;28.20;70.40;;;;;;5043524;28;20449;-87
2022/08/01 12:45:58;;;;;;;3.90;3.50;;;28.30;69.70;;;;;;5041545;28;20441;-87
2022/08/01 12:48:25;;;;;;;3.33;3.00;;;28.30;67.90;;;;;;5030464;28;20498;-88
2022/08/01 12:50:57;;;;;;;3.10;2.80;;;28.70;65.40;;;;;;5029615;28;20450;-86
2022/08/01 12:53:26;;;;;;;3.23;3.03;;;28.70;64.80;;;;;;5028002;28;20469;-85
2022/08/01 12:56:07;;;;;;;3.23;2.70;;;28.40;63.90;;;;;;5045601;28;20455;-87
2022/08/01 12:58:37;;;;;;;3.40;3.10;;;28.50;64.20;;;;;;5040032;28;20497;-87
2022/08/01 13:01:18;;;;;;;2.57;2.40;;;28.40;64.60;;;;;;5029232;28;20480;-88
2022/08/01 13:04:04;;;;;;;2.53;2.33;;;28.40;65.50;;;;;;5010459;28;20453;-87
2022/08/01 13:06:31;;;;;;;3.20;2.47;;;28.70;66.20;;;;;;5040185;28;20535;-86
2022/08/01 13:09:05;;;;;;;2.03;1.93;;;28.90;64.90;;;;;;5032122;28;20460;-88
2022/08/01 13:11:32;;;;;;;2.30;2.10;;;29.10;64.40;;;;;;5042578;28;20468;-86
2022/08/01 13:13:59;;;;;;;2.60;2.40;;;29.20;63.30;;;;;;5032191;28;20442;-86
2022/08/01 13:16:26;;;;;;;2.57;2.37;;;28.90;64.10;;;;;;5009683;28;20448;-87